Terminal Aerodrome Forecast
Issued by NWS Sioux Falls, SD

Home | Current Version | Previous Version | Text Only | Print | Product List | Glossary Off
Versions: 1 2 3 4 5 6 7 8 9 10 11 12 13

000
FTUS43 KFSD 251120
TAFFSD
TAF
KFSD 251120Z 2512/2612 30008KT P6SM SKC
     FM251700 32012KT P6SM FEW120
     FM260100 35007KT P6SM BKN070
     FM260300 VRB03KT P6SM BKN080=

USA.gov is the U.S. government's official web portal to all federal, state and local government web resources and services.